createdAt,value
2019-05-01T00:04:54.889Z,99.90
2019-05-01T00:10:57.816Z,99.90
2019-05-01T00:17:00.852Z,99.90
2019-05-01T00:23:03.413Z,99.90
2019-05-01T00:29:05.668Z,99.90
2019-05-01T00:35:08.032Z,99.90
2019-05-01T00:41:10.548Z,99.90
2019-05-01T00:47:13.407Z,99.90
2019-05-01T00:53:16.199Z,99.90
2019-05-01T00:59:25.203Z,99.90
2019-05-01T01:05:27.938Z,99.90
2019-05-01T01:11:30.349Z,99.90
2019-05-01T01:17:32.746Z,99.90
2019-05-01T01:23:35.212Z,99.90
2019-05-01T01:29:37.788Z,99.90
2019-05-01T01:35:40.577Z,99.90
2019-05-01T01:41:44.497Z,99.90
2019-05-01T01:48:06.959Z,99.90
2019-05-01T01:54:11.398Z,99.90
2019-05-01T02:00:17.941Z,99.90
2019-05-01T02:06:20.225Z,99.90
2019-05-01T02:12:22.598Z,99.90
2019-05-01T02:18:24.848Z,99.90
2019-05-01T02:24:27.610Z,99.90
2019-05-01T02:30:33.652Z,99.90
2019-05-01T02:36:37.894Z,99.90
2019-05-01T02:42:42.300Z,99.90
2019-05-01T02:48:52.593Z,99.90
2019-05-01T02:54:56.653Z,99.90
2019-05-01T03:00:58.962Z,99.90
2019-05-01T03:07:04.920Z,99.90
2019-05-01T03:13:09.272Z,99.90
2019-05-01T03:19:30.411Z,99.90
2019-05-01T03:25:37.520Z,99.90
2019-05-01T03:31:43.064Z,99.90
2019-05-01T03:37:54.287Z,99.90
2019-05-01T03:44:03.759Z,99.90
2019-05-01T03:50:10.906Z,99.90
2019-05-01T03:56:14.169Z,99.90
2019-05-01T04:08:54.272Z,99.90
2019-05-01T04:15:01.306Z,99.90
2019-05-01T04:21:07.743Z,99.90
2019-05-01T04:27:15.929Z,99.90
2019-05-01T04:33:20.664Z,99.90
2019-05-01T04:39:26.637Z,99.90
2019-05-01T04:51:58.327Z,99.90
2019-05-01T04:58:03.584Z,99.90
2019-05-01T05:04:06.186Z,99.90
2019-05-01T05:10:08.710Z,99.70
2019-05-01T05:16:16.133Z,97.30
2019-05-01T05:22:18.723Z,96.40
2019-05-01T05:28:23.655Z,96.90
2019-05-01T05:34:34.725Z,95.50
2019-05-01T05:41:03.960Z,94.70
2019-05-01T05:47:07.846Z,92.00
2019-05-01T05:53:15.919Z,86.40
2019-05-01T05:59:25.221Z,80.80
2019-05-01T06:05:35.612Z,80.60
2019-05-01T06:11:43.241Z,74.70
2019-05-01T06:17:47.314Z,71.00
2019-05-01T06:24:06.630Z,67.00
2019-05-01T06:30:11.199Z,62.30
2019-05-01T06:36:14.750Z,62.50
2019-05-01T06:42:19.151Z,60.30
2019-05-01T06:48:26.190Z,60.40
2019-05-01T06:54:32.229Z,62.30
2019-05-01T07:00:39.197Z,57.50
2019-05-01T07:06:41.758Z,55.40
2019-05-01T07:12:45.182Z,54.00
2019-05-01T07:18:48.657Z,53.30
2019-05-01T07:24:51.376Z,50.70
2019-05-01T07:30:56.180Z,48.90
2019-05-01T07:36:59.227Z,47.80
2019-05-01T07:43:19.021Z,45.50
2019-05-01T07:49:37.657Z,45.00
2019-05-01T07:55:40.332Z,43.60
2019-05-01T08:01:44.681Z,45.00
2019-05-01T08:07:47.400Z,47.50
2019-05-01T08:13:50.139Z,47.10
2019-05-01T08:19:58.703Z,46.00
2019-05-01T08:26:03.903Z,46.30
2019-05-01T08:32:10.205Z,42.30
2019-05-01T08:38:12.474Z,43.30
2019-05-01T08:44:15.835Z,42.30
2019-05-01T08:50:24.771Z,42.70
2019-05-01T08:56:30.106Z,41.90
2019-05-01T09:02:32.496Z,42.40
2019-05-01T09:08:35.796Z,41.80
2019-05-01T09:14:38.600Z,42.60
2019-05-01T09:20:45.830Z,42.00
2019-05-01T09:27:02.869Z,40.80
2019-05-01T09:33:05.843Z,40.40
2019-05-01T09:39:10.260Z,39.40
2019-05-01T09:45:15.797Z,41.00
2019-05-01T09:51:37.042Z,43.00
2019-05-01T09:57:42.921Z,44.70
2019-05-01T10:03:54.230Z,43.70
2019-05-01T10:09:53.868Z,47.20
2019-05-01T10:15:56.505Z,48.20
2019-05-01T10:22:03.768Z,47.90
2019-05-01T10:28:26.239Z,47.00
2019-05-01T10:34:42.925Z,47.20
2019-05-01T10:40:43.788Z,45.90
2019-05-01T10:46:47.926Z,45.50
2019-05-01T10:52:51.364Z,43.10
2019-05-01T10:58:55.814Z,44.60
2019-05-01T11:04:59.662Z,44.00
2019-05-01T11:11:07.933Z,44.20
2019-05-01T11:17:15.665Z,44.50
2019-05-01T11:23:18.341Z,45.90
2019-05-01T11:29:29.838Z,47.80
2019-05-01T11:35:49.470Z,48.30
2019-05-01T11:41:54.763Z,46.70
2019-05-01T11:47:58.169Z,44.10
2019-05-01T11:54:04.961Z,41.60
2019-05-01T12:00:16.375Z,43.10
2019-05-01T12:06:22.907Z,43.70
2019-05-01T12:12:26.475Z,46.00
2019-05-01T12:18:28.938Z,47.80
2019-05-01T12:24:36.612Z,47.40
2019-05-01T12:30:40.318Z,47.40
2019-05-01T12:36:47.025Z,48.80
2019-05-01T12:42:49.559Z,49.00
2019-05-01T12:48:52.443Z,50.20
2019-05-01T12:54:56.719Z,50.80
2019-05-01T13:00:59.333Z,50.70
2019-05-01T13:07:01.845Z,51.20
2019-05-01T13:13:04.375Z,52.20
2019-05-01T13:19:06.752Z,53.20
2019-05-01T13:25:10.139Z,54.30
2019-05-01T13:31:14.424Z,55.30
2019-05-01T13:37:19.010Z,54.80
2019-05-01T13:43:21.350Z,56.30
2019-05-01T13:49:24.238Z,57.50
2019-05-01T13:55:27.121Z,58.30
2019-05-01T14:01:30.728Z,58.40
2019-05-01T14:07:33.426Z,58.70
2019-05-01T14:13:36.523Z,58.90
2019-05-01T14:19:43.242Z,57.50
2019-05-01T14:26:04.788Z,59.30
2019-05-01T14:32:07.058Z,59.50
2019-05-01T14:38:09.645Z,58.30
2019-05-01T14:44:11.980Z,58.70
2019-05-01T14:50:14.401Z,59.80
2019-05-01T14:56:18.253Z,59.10
2019-05-01T15:02:20.972Z,58.60
2019-05-01T15:08:23.604Z,59.30
2019-05-01T15:14:35.734Z,58.80
2019-05-01T15:20:38.173Z,59.30
2019-05-01T15:26:41.513Z,60.20
2019-05-01T15:32:44.173Z,59.80
2019-05-01T15:38:46.732Z,58.60
2019-05-01T15:44:49.321Z,59.90
2019-05-01T15:50:51.635Z,59.80
2019-05-01T15:56:59.786Z,59.70
2019-05-01T16:03:02.402Z,61.50
2019-05-01T16:09:06.240Z,63.20
2019-05-01T16:15:11.070Z,63.10
2019-05-01T16:21:13.604Z,63.10
2019-05-01T16:27:16.616Z,63.20
2019-05-01T16:33:18.896Z,65.30
2019-05-01T16:39:26.375Z,64.50
2019-05-01T16:45:28.679Z,67.70
2019-05-01T16:51:31.043Z,71.80
2019-05-01T16:57:33.479Z,72.30
2019-05-01T17:03:46.805Z,73.90
2019-05-01T17:10:09.161Z,74.40
2019-05-01T17:16:11.818Z,76.50
2019-05-01T17:22:19.224Z,78.50
2019-05-01T17:28:22.042Z,79.70
2019-05-01T17:34:25.590Z,81.30
2019-05-01T17:40:28.681Z,82.10
2019-05-01T17:46:32.652Z,82.30
2019-05-01T17:52:34.910Z,82.80
2019-05-01T17:58:37.357Z,83.90
2019-05-01T18:04:50.901Z,84.70
2019-05-01T18:11:02.693Z,86.70
2019-05-01T18:17:05.594Z,87.50
2019-05-01T18:23:12.562Z,88.30
2019-05-01T18:29:31.505Z,89.00
2019-05-01T18:35:34.251Z,90.20
2019-05-01T18:41:47.868Z,91.10
2019-05-01T18:47:50.393Z,92.00
2019-05-01T18:53:57.489Z,92.60
2019-05-01T18:59:56.892Z,92.90
2019-05-01T19:05:59.204Z,93.30
2019-05-01T19:12:01.806Z,93.70
2019-05-01T19:18:04.797Z,94.00
2019-05-01T19:24:07.306Z,94.00
2019-05-01T19:30:14.925Z,94.60
2019-05-01T19:36:17.766Z,94.80
2019-05-01T19:42:22.066Z,94.90
2019-05-01T19:48:24.881Z,95.30
2019-05-01T19:54:29.799Z,95.20
2019-05-01T20:00:56.418Z,95.40
2019-05-01T20:07:00.555Z,95.80
2019-05-01T20:13:06.948Z,95.90
2019-05-01T20:19:07.815Z,96.10
2019-05-01T20:25:14.622Z,96.30
2019-05-01T20:31:15.485Z,96.40
2019-05-01T20:37:17.890Z,96.40
2019-05-01T20:43:20.320Z,96.60
2019-05-01T20:49:22.852Z,96.60
2019-05-01T20:55:25.318Z,97.30
2019-05-01T21:01:29.451Z,97.00
2019-05-01T21:07:34.618Z,97.10
2019-05-01T21:13:37.180Z,97.20
2019-05-01T21:19:40.856Z,97.40
2019-05-01T21:25:43.865Z,97.30
2019-05-01T21:31:46.296Z,97.50
2019-05-01T21:37:49.302Z,97.40
2019-05-01T21:43:54.121Z,97.80
2019-05-01T21:49:56.332Z,97.50
2019-05-01T21:56:02.314Z,97.60
2019-05-01T22:02:10.130Z,97.90
2019-05-01T22:08:11.503Z,97.90
2019-05-01T22:14:16.045Z,97.80
2019-05-01T22:20:20.276Z,97.80
2019-05-01T22:26:23.205Z,98.00
2019-05-01T22:32:32.249Z,98.20
2019-05-01T22:38:32.293Z,98.70
2019-05-01T22:44:34.817Z,98.70
2019-05-01T22:50:37.485Z,99.00
2019-05-01T22:56:44.730Z,98.90
2019-05-01T23:02:47.501Z,99.00
2019-05-01T23:08:50.525Z,99.20
2019-05-01T23:14:55.387Z,98.70
2019-05-01T23:20:58.816Z,98.80
2019-05-01T23:27:01.182Z,98.90
2019-05-01T23:33:03.773Z,99.00
2019-05-01T23:39:06.052Z,98.90
2019-05-01T23:45:09.408Z,99.00
2019-05-01T23:51:12.008Z,99.10
2019-05-01T23:57:18.828Z,99.50
